Archival Weather

Chicago O'Hare International

Chicago, Illinois (KORD)

Report from: Friday, December 9, 2022 1:51 AM CST
Current time: Friday, June 21, 2024 6:50 PM CDT

Current weather – Weather history – Daily summaries
Weather forecast

Temperature2.8°C (37.0°F)
Wind chill-1.2°C (29.8°F)
Dew point-0.6°C (30.9°F)
Winds 9 kts (4.6 m/s, 10.4 mph) East (80°)
Visibility10 mi. (16.1 km)
Clouds Few clouds 2,000 ft. (610 m)
Ceiling: Broken clouds 8,500 ft. (2,591 m)
Altimeter30.24 in.Hg (1024 mB)
Relative humidity78 %
Density altitude-1,778 ft. (-542 m)
Sea-level pressure102.5 kPa (1025 mB, 30.26 in.Hg)
Remarks Automated weather observing station with precipitation discriminator
Flight conditions Visual Meteorological Conditions
Raw dataKORD 090751Z 08009KT 10SM FEW020 BKN085 03/M01 A3024 RMK AO2 SLP246 T00281006
An error has occurred. This application may no longer respond until reloaded. Reload 🗙